Language selection

My Weather Profile Weather Topics  | 

Atlantic - Newfoundland: Past 24 Hour Conditions

 

West Chedabucto Bay - 44489

01:00 PM ADT 16 September 2021Buoy position: 45.49N 61.14W
Disclaimer

This table is a summary of hourly weather conditions for the past 24 hours.
Please note that these observations might not always be representative of weather conditions over their associated marine area.

Date / Time
(ADT)
Wind(knots) Wave height(m) Wave period(s) Pressure(kPa) Air tempC) Water tempC)
16 September 2021
13:00 WNW 12 gust 15 0.3 2.7 102.2 18 18
12:00 NW 15 gust 17 0.4 2.5 102.2 19 18
11:00 NW 13 gust 16 0.3 2.9 102.1 19 18
10:00 WSW 9 gust 11 0.3 3.9 102.0 19 18
9:00 SW 8 gust 10 0.3 3.6 101.9 19 18
8:00 SW 7 gust 8 0.3 3.6 101.9 18 18
7:00 SW 10 gust 11 0.5 3.4 101.8 18 18
6:00 SSW 14 gust 16 0.7 3.5 101.7 19 18
5:00 SW 17 gust 21 0.8 3.5 101.7 19 18
4:00 SSW 18 gust 22 0.9 3.5 101.8 18 18
3:00 SSW 19 gust 23 0.9 3.3 101.9 18 18
2:00 SSW 12 gust 17 0.8 3.4 102.0 18 18
1:00 S 19 gust 24 1.0 3.6 102.0 18 17
0:00 S 16 gust 19 0.6 3.0 102.0 18 17
15 September 2021
23:00 S 17 gust 22 0.7 3.2 102.1 18 17
22:00 S 19 gust 23 0.7 3.2 102.1 18 17
21:00 N/A N/A N/A N/A N/A N/A
20:00 S 19 gust 24 0.7 3.0 102.1 18 17
19:00 S 18 gust 24 0.8 3.3 102.1 18 17
18:00 S 17 gust 22 0.8 3.2 102.1 18 18
17:00 S 18 gust 23 0.7 3.1 102.1 17 18
16:00 S 19 gust 25 0.7 2.9 102.1 17 18
15:00 S 17 gust 19 0.6 2.7 102.2 17 18
14:00 SSE 15 gust 17 0.5 2.5 102.2 16 18
13:00 S 12 gust 15 0.4 2.3 102.3 16 18

Zoom-in to make a selection

Map of Atlantic - Newfoundland marine weather areas Banquereau - 44139 East Chedabucto Bay - 44488 West Chedabucto Bay - 44489 Blanc-Sablon Airport Cap Whittle Chevery Natashquan Airport Heath Point Îles de la Madeleine Airport Miscou Island Eskasoni (First Nations) Grand Étang Ingonish Beach North Mountain St.Paul Island J.A. Douglas McCurdy Sydney Airport Charlottetown Airport East Point North Cape Argentia Bonavista Burgeo Cape Race Corner Brook Daniel's Harbour Englee Ferolle Point La Scie Port aux Basques Rocky Harbour Sagona Island St. Anthony Airport St. John's Int'l Airport St. Lawrence Stephenville Airport Twillingate Winterland Branch Hill Wreckhouse Grates Cove Pool's Island Marticot Island Long Pond Cartwright Airport Mary's Harbour
Legend:
buoy Buoy
land station Land Station

Atlantic - Newfoundland Area

Another Region

What we are doing

Date modified: